ULK2601 LGSA-EDNY
Flight info
| Callsign | ULK2601 |
|---|---|
| Flight time | 2h 37m |
| Altitude | 36000 |
| Route | SOKRI DCT ARA UA14 KRK UL53 OLGAT DCT AIOSA DCT UMSON DCT PEVAL DCT SOTOV P66 KPT KPT1F |
| Aircraft | A319/M-SDE3FGHIRWY/LB1 |
Departure
| Time | 2026-04-26 11:43 |
|---|---|
| Airport | Chania International Airport (LGSA) |
Arrival
| Time | 2026-04-26 14:21 |
|---|---|
| Airport | Bodensee Airport Friedrichshafen (EDNY) |
| Time | Latitude | Longitude | Altitude | Speed | Heading |
|---|---|---|---|---|---|
| 2026-04-26 11:08 | 35.53822 | 24.14212 | 498 ft | 0 kts | 21° |
| 2026-04-26 11:33 | 35.53818 | 24.14210 | 498 ft | 2 kts | 21° |
| 2026-04-26 11:34 | 35.53800 | 24.14201 | 498 ft | 3 kts | 21° |
| 2026-04-26 11:34 | 35.53781 | 24.14192 | 498 ft | 3 kts | 22° |
| 2026-04-26 11:34 | 35.53765 | 24.14184 | 495 ft | 3 kts | 27° |
| 2026-04-26 11:34 | 35.53750 | 24.14171 | 495 ft | 3 kts | 61° |
| 2026-04-26 11:35 | 35.53746 | 24.14151 | 493 ft | 3 kts | 108° |
| 2026-04-26 11:35 | 35.53754 | 24.14129 | 498 ft | 3 kts | 119° |
| 2026-04-26 11:35 | 35.53760 | 24.14114 | 498 ft | 1 kts | 111° |
| 2026-04-26 11:35 | 35.53761 | 24.14114 | 498 ft | 0 kts | 111° |
| 2026-04-26 11:38 | 35.53760 | 24.14114 | 498 ft | 0 kts | 111° |
| 2026-04-26 11:38 | 35.53756 | 24.14128 | 490 ft | 4 kts | 111° |
| 2026-04-26 11:38 | 35.53740 | 24.14173 | 496 ft | 8 kts | 112° |
| 2026-04-26 11:38 | 35.53712 | 24.14260 | 491 ft | 14 kts | 111° |
| 2026-04-26 11:39 | 35.53675 | 24.14360 | 497 ft | 10 kts | 135° |
| 2026-04-26 11:39 | 35.53610 | 24.14346 | 498 ft | 10 kts | 201° |
| 2026-04-26 11:39 | 35.53554 | 24.14363 | 493 ft | 10 kts | 112° |
| 2026-04-26 11:39 | 35.53525 | 24.14453 | 492 ft | 13 kts | 111° |
| 2026-04-26 11:40 | 35.53488 | 24.14568 | 498 ft | 16 kts | 111° |
| 2026-04-26 11:40 | 35.53441 | 24.14711 | 494 ft | 20 kts | 112° |
| 2026-04-26 11:40 | 35.53385 | 24.14883 | 489 ft | 24 kts | 111° |
| 2026-04-26 11:40 | 35.53321 | 24.15081 | 487 ft | 25 kts | 111° |
| 2026-04-26 11:41 | 35.53255 | 24.15282 | 496 ft | 25 kts | 111° |
| 2026-04-26 11:42 | 35.53067 | 24.15291 | 490 ft | 98 kts | 291° |
| 2026-04-26 11:43 | 35.53393 | 24.14290 | 504 ft | 151 kts | 291° |
| 2026-04-26 11:43 | 35.53779 | 24.13084 | 1009 ft | 151 kts | 290° |
| 2026-04-26 11:43 | 35.54168 | 24.11880 | 1617 ft | 152 kts | 291° |
| 2026-04-26 11:43 | 35.54569 | 24.10679 | 2238 ft | 153 kts | 291° |
| 2026-04-26 11:44 | 35.54997 | 24.09390 | 2634 ft | 173 kts | 292° |
| 2026-04-26 11:44 | 35.55484 | 24.07956 | 3063 ft | 189 kts | 296° |
| 2026-04-26 11:44 | 35.56345 | 24.06746 | 3569 ft | 193 kts | 329° |
| 2026-04-26 11:44 | 35.57640 | 24.06307 | 4087 ft | 199 kts | 2° |
| 2026-04-26 11:45 | 35.59042 | 24.06507 | 4573 ft | 209 kts | 9° |
| 2026-04-26 11:45 | 35.60499 | 24.06741 | 5091 ft | 213 kts | 9° |
| 2026-04-26 11:45 | 35.61982 | 24.06966 | 5607 ft | 216 kts | 6° |
| 2026-04-26 11:45 | 35.63481 | 24.06719 | 6100 ft | 224 kts | 341° |
| 2026-04-26 11:46 | 35.64860 | 24.05688 | 6616 ft | 242 kts | 326° |
| 2026-04-26 11:46 | 35.66262 | 24.04364 | 6982 ft | 265 kts | 325° |
| 2026-04-26 11:46 | 35.67746 | 24.02947 | 7631 ft | 274 kts | 325° |
| 2026-04-26 11:46 | 35.69265 | 24.01488 | 8412 ft | 279 kts | 325° |
| 2026-04-26 11:47 | 35.70816 | 23.99999 | 8854 ft | 285 kts | 326° |
| 2026-04-26 11:47 | 35.72374 | 23.98504 | 9010 ft | 284 kts | 326° |
| 2026-04-26 11:47 | 35.73945 | 23.97000 | 9674 ft | 287 kts | 326° |
| 2026-04-26 11:47 | 35.75535 | 23.95483 | 10332 ft | 296 kts | 326° |
| 2026-04-26 11:48 | 35.77232 | 23.93874 | 10566 ft | 320 kts | 326° |
| 2026-04-26 11:48 | 35.79041 | 23.92160 | 11018 ft | 334 kts | 326° |
| 2026-04-26 11:48 | 35.80896 | 23.90394 | 11676 ft | 340 kts | 326° |
| 2026-04-26 11:48 | 35.82780 | 23.88592 | 12361 ft | 345 kts | 326° |
| 2026-04-26 11:49 | 35.84660 | 23.86787 | 13027 ft | 349 kts | 326° |
| 2026-04-26 11:49 | 35.86587 | 23.84939 | 13716 ft | 353 kts | 326° |
| 2026-04-26 11:49 | 35.88529 | 23.83077 | 14404 ft | 355 kts | 326° |
| 2026-04-26 11:49 | 35.90488 | 23.81200 | 15077 ft | 358 kts | 326° |
| 2026-04-26 11:50 | 35.92465 | 23.79304 | 15747 ft | 360 kts | 326° |
| 2026-04-26 11:50 | 35.94454 | 23.77397 | 16396 ft | 362 kts | 326° |
| 2026-04-26 11:50 | 35.96424 | 23.75503 | 17017 ft | 364 kts | 326° |
| 2026-04-26 11:50 | 35.98433 | 23.73571 | 17638 ft | 366 kts | 326° |
| 2026-04-26 11:51 | 36.00452 | 23.71631 | 18248 ft | 369 kts | 326° |
| 2026-04-26 11:51 | 36.02480 | 23.69683 | 18835 ft | 371 kts | 326° |
| 2026-04-26 11:51 | 36.04527 | 23.67718 | 19389 ft | 373 kts | 326° |
| 2026-04-26 11:51 | 36.06583 | 23.65742 | 19947 ft | 376 kts | 326° |
| 2026-04-26 11:52 | 36.08653 | 23.63752 | 20495 ft | 378 kts | 326° |
| 2026-04-26 11:52 | 36.10035 | 23.62421 | 20854 ft | 380 kts | 326° |
| 2026-04-26 11:52 | 36.12837 | 23.59719 | 21561 ft | 383 kts | 326° |
| 2026-04-26 11:52 | 36.14945 | 23.57684 | 22076 ft | 386 kts | 326° |
| 2026-04-26 11:53 | 36.17067 | 23.55635 | 22586 ft | 388 kts | 326° |
| 2026-04-26 11:53 | 36.19200 | 23.53574 | 23077 ft | 390 kts | 326° |
| 2026-04-26 11:53 | 36.21349 | 23.51494 | 23549 ft | 393 kts | 326° |
| 2026-04-26 11:54 | 36.25675 | 23.47302 | 24450 ft | 397 kts | 326° |
| 2026-04-26 11:54 | 36.27813 | 23.45179 | 24871 ft | 400 kts | 325° |
| 2026-04-26 11:54 | 36.29958 | 23.42971 | 25294 ft | 402 kts | 324° |
| 2026-04-26 11:54 | 36.32096 | 23.40722 | 25703 ft | 404 kts | 324° |
| 2026-04-26 11:55 | 36.34236 | 23.38454 | 26099 ft | 406 kts | 323° |
| 2026-04-26 11:55 | 36.36392 | 23.36176 | 26478 ft | 408 kts | 324° |
| 2026-04-26 11:55 | 36.38559 | 23.33898 | 26844 ft | 409 kts | 324° |
| 2026-04-26 11:55 | 36.40742 | 23.31614 | 27210 ft | 411 kts | 324° |
| 2026-04-26 11:56 | 36.42937 | 23.29325 | 27583 ft | 413 kts | 324° |
| 2026-04-26 11:56 | 36.45146 | 23.27028 | 27950 ft | 415 kts | 324° |
| 2026-04-26 11:56 | 36.47357 | 23.24725 | 28297 ft | 416 kts | 324° |
| 2026-04-26 11:56 | 36.49582 | 23.22400 | 28642 ft | 418 kts | 324° |
| 2026-04-26 11:57 | 36.51813 | 23.20062 | 28970 ft | 420 kts | 324° |
| 2026-04-26 11:57 | 36.54054 | 23.17711 | 29286 ft | 422 kts | 324° |
| 2026-04-26 11:57 | 36.56307 | 23.15345 | 29604 ft | 424 kts | 323° |
| 2026-04-26 11:57 | 36.58563 | 23.12973 | 29923 ft | 425 kts | 324° |
| 2026-04-26 11:58 | 36.60828 | 23.10592 | 30223 ft | 427 kts | 324° |
| 2026-04-26 11:58 | 36.63072 | 23.08233 | 30504 ft | 429 kts | 324° |
| 2026-04-26 11:58 | 36.65355 | 23.05833 | 30778 ft | 430 kts | 324° |
| 2026-04-26 11:58 | 36.67647 | 23.03423 | 31032 ft | 433 kts | 324° |
| 2026-04-26 11:59 | 36.69952 | 23.00996 | 31292 ft | 435 kts | 324° |
| 2026-04-26 11:59 | 36.72265 | 22.98558 | 31599 ft | 435 kts | 323° |
| 2026-04-26 11:59 | 36.74573 | 22.96121 | 31958 ft | 434 kts | 323° |
| 2026-04-26 11:59 | 36.76873 | 22.93686 | 32302 ft | 433 kts | 324° |
| 2026-04-26 12:00 | 36.79169 | 22.91253 | 32653 ft | 433 kts | 324° |
| 2026-04-26 12:00 | 36.81456 | 22.88826 | 32986 ft | 432 kts | 324° |
| 2026-04-26 12:00 | 36.83750 | 22.86393 | 33306 ft | 432 kts | 324° |
| 2026-04-26 12:00 | 36.86013 | 22.83997 | 33626 ft | 431 kts | 324° |
| 2026-04-26 12:01 | 36.88298 | 22.81581 | 33923 ft | 431 kts | 324° |
| 2026-04-26 12:01 | 36.90583 | 22.79160 | 34222 ft | 430 kts | 324° |
| 2026-04-26 12:01 | 36.92866 | 22.76737 | 34552 ft | 430 kts | 323° |
| 2026-04-26 12:01 | 36.95142 | 22.74313 | 34877 ft | 429 kts | 323° |
| 2026-04-26 12:02 | 36.97412 | 22.71889 | 35169 ft | 428 kts | 323° |
| 2026-04-26 12:02 | 36.98914 | 22.70286 | 35351 ft | 428 kts | 323° |
| 2026-04-26 12:02 | 37.01179 | 22.67869 | 35613 ft | 428 kts | 323° |
| 2026-04-26 12:02 | 37.03438 | 22.65458 | 35875 ft | 426 kts | 323° |
| 2026-04-26 12:03 | 37.05702 | 22.63040 | 36016 ft | 426 kts | 322° |
| 2026-04-26 12:03 | 37.10181 | 22.58259 | 36036 ft | 422 kts | 322° |
| 2026-04-26 12:04 | 37.14640 | 22.53485 | 36036 ft | 421 kts | 322° |
| 2026-04-26 12:04 | 37.19087 | 22.48711 | 36036 ft | 421 kts | 322° |
| 2026-04-26 12:05 | 37.23535 | 22.43941 | 36033 ft | 421 kts | 322° |
| 2026-04-26 12:05 | 37.27982 | 22.39161 | 36034 ft | 421 kts | 322° |
| 2026-04-26 12:06 | 37.32408 | 22.34401 | 36031 ft | 421 kts | 322° |
| 2026-04-26 12:06 | 37.36848 | 22.29609 | 36028 ft | 421 kts | 322° |
| 2026-04-26 12:07 | 37.41284 | 22.24799 | 36026 ft | 421 kts | 322° |
| 2026-04-26 12:07 | 37.45719 | 22.19988 | 36026 ft | 421 kts | 322° |
| 2026-04-26 12:08 | 37.50159 | 22.15184 | 36025 ft | 421 kts | 322° |
| 2026-04-26 12:08 | 37.54595 | 22.10373 | 36023 ft | 421 kts | 322° |
| 2026-04-26 12:09 | 37.59029 | 22.05542 | 36026 ft | 421 kts | 322° |
| 2026-04-26 12:09 | 37.63458 | 22.00703 | 36028 ft | 421 kts | 322° |
| 2026-04-26 12:10 | 37.67892 | 21.95856 | 36031 ft | 422 kts | 321° |
| 2026-04-26 12:10 | 37.72330 | 21.91007 | 36055 ft | 421 kts | 320° |
| 2026-04-26 12:11 | 37.76740 | 21.86178 | 36059 ft | 419 kts | 320° |
| 2026-04-26 12:11 | 37.81135 | 21.81362 | 36065 ft | 417 kts | 320° |
| 2026-04-26 12:12 | 37.85521 | 21.76560 | 36069 ft | 416 kts | 320° |
| 2026-04-26 12:12 | 37.89895 | 21.71752 | 36064 ft | 416 kts | 320° |
| 2026-04-26 12:13 | 37.94260 | 21.66936 | 36062 ft | 416 kts | 320° |
| 2026-04-26 12:13 | 37.98616 | 21.62114 | 36060 ft | 416 kts | 320° |
| 2026-04-26 12:14 | 38.02958 | 21.57318 | 36056 ft | 416 kts | 320° |
| 2026-04-26 12:14 | 38.07317 | 21.52489 | 36044 ft | 416 kts | 320° |
| 2026-04-26 12:15 | 38.11701 | 21.47627 | 36054 ft | 416 kts | 320° |
| 2026-04-26 12:15 | 38.16022 | 21.42816 | 36049 ft | 416 kts | 319° |
| 2026-04-26 12:16 | 38.20365 | 21.37964 | 36047 ft | 416 kts | 319° |
| 2026-04-26 12:16 | 38.24722 | 21.33110 | 36041 ft | 416 kts | 319° |
| 2026-04-26 12:17 | 38.29079 | 21.28260 | 36050 ft | 416 kts | 319° |
| 2026-04-26 12:17 | 38.33438 | 21.23391 | 36044 ft | 416 kts | 319° |
| 2026-04-26 12:18 | 38.37784 | 21.18517 | 36046 ft | 416 kts | 319° |
| 2026-04-26 12:18 | 38.42131 | 21.13632 | 36054 ft | 416 kts | 319° |
| 2026-04-26 12:19 | 38.46447 | 21.08789 | 36051 ft | 416 kts | 319° |
| 2026-04-26 12:19 | 38.50792 | 21.03901 | 36055 ft | 417 kts | 319° |
| 2026-04-26 12:20 | 38.55138 | 20.98990 | 36055 ft | 417 kts | 318° |
| 2026-04-26 12:20 | 38.59489 | 20.94077 | 36063 ft | 418 kts | 319° |
| 2026-04-26 12:21 | 38.63966 | 20.89333 | 36067 ft | 418 kts | 321° |
| 2026-04-26 12:21 | 38.68552 | 20.84741 | 36070 ft | 418 kts | 321° |
| 2026-04-26 12:22 | 38.73140 | 20.80134 | 36069 ft | 418 kts | 321° |
| 2026-04-26 12:22 | 38.77686 | 20.75476 | 36070 ft | 418 kts | 321° |
| 2026-04-26 12:23 | 38.82197 | 20.70818 | 36072 ft | 419 kts | 320° |
| 2026-04-26 12:23 | 38.86736 | 20.66133 | 36072 ft | 419 kts | 320° |
| 2026-04-26 12:24 | 38.91311 | 20.61487 | 36073 ft | 419 kts | 321° |
| 2026-04-26 12:24 | 38.95929 | 20.56913 | 36079 ft | 419 kts | 321° |
| 2026-04-26 12:25 | 39.02853 | 20.50050 | 36082 ft | 418 kts | 321° |
| 2026-04-26 12:25 | 39.07445 | 20.45453 | 36079 ft | 418 kts | 321° |
| 2026-04-26 12:26 | 39.11996 | 20.40783 | 36076 ft | 418 kts | 320° |
| 2026-04-26 12:26 | 39.16502 | 20.36113 | 36072 ft | 418 kts | 320° |
| 2026-04-26 12:27 | 39.21043 | 20.31415 | 36070 ft | 419 kts | 320° |
| 2026-04-26 12:27 | 39.25601 | 20.26723 | 36068 ft | 418 kts | 320° |
| 2026-04-26 12:28 | 39.30145 | 20.22050 | 36057 ft | 418 kts | 320° |
| 2026-04-26 12:28 | 39.34684 | 20.17357 | 36054 ft | 417 kts | 320° |
| 2026-04-26 12:29 | 39.39188 | 20.12688 | 36048 ft | 417 kts | 320° |
| 2026-04-26 12:30 | 39.45810 | 20.05410 | 36036 ft | 415 kts | 313° |
| 2026-04-26 12:30 | 39.49853 | 20.00068 | 36033 ft | 416 kts | 313° |
| 2026-04-26 12:31 | 39.55942 | 19.92048 | 36023 ft | 416 kts | 313° |
| 2026-04-26 12:31 | 39.59999 | 19.86684 | 36015 ft | 416 kts | 313° |
| 2026-04-26 12:32 | 39.64045 | 19.81309 | 36019 ft | 416 kts | 313° |
| 2026-04-26 12:33 | 39.70101 | 19.73256 | 36023 ft | 417 kts | 313° |
| 2026-04-26 12:33 | 39.74152 | 19.67869 | 36029 ft | 417 kts | 313° |
| 2026-04-26 12:34 | 39.78173 | 19.62506 | 36034 ft | 416 kts | 313° |
| 2026-04-26 12:34 | 39.82212 | 19.57106 | 36033 ft | 416 kts | 313° |
| 2026-04-26 12:35 | 39.86250 | 19.51699 | 36031 ft | 417 kts | 313° |
| 2026-04-26 12:35 | 39.90291 | 19.46282 | 36034 ft | 417 kts | 313° |
| 2026-04-26 12:36 | 39.94330 | 19.40853 | 36035 ft | 417 kts | 313° |
| 2026-04-26 12:36 | 39.98361 | 19.35424 | 36035 ft | 417 kts | 312° |
| 2026-04-26 12:37 | 40.02398 | 19.29979 | 36050 ft | 416 kts | 312° |
| 2026-04-26 12:37 | 40.06398 | 19.24570 | 36047 ft | 416 kts | 312° |
| 2026-04-26 12:38 | 40.10413 | 19.19130 | 36057 ft | 416 kts | 312° |
| 2026-04-26 12:38 | 40.14430 | 19.13685 | 36057 ft | 416 kts | 312° |
| 2026-04-26 12:39 | 40.18448 | 19.08221 | 36063 ft | 416 kts | 312° |
| 2026-04-26 12:39 | 40.22457 | 19.02760 | 36065 ft | 416 kts | 312° |
| 2026-04-26 12:40 | 40.26764 | 18.97693 | 36068 ft | 419 kts | 320° |
| 2026-04-26 12:40 | 40.31359 | 18.93073 | 36075 ft | 419 kts | 320° |
| 2026-04-26 12:41 | 40.35981 | 18.88415 | 36081 ft | 419 kts | 320° |
| 2026-04-26 12:41 | 40.40600 | 18.83736 | 36088 ft | 420 kts | 320° |
| 2026-04-26 12:42 | 40.45222 | 18.79044 | 36098 ft | 420 kts | 320° |
| 2026-04-26 12:42 | 40.49837 | 18.74357 | 36101 ft | 419 kts | 320° |
| 2026-04-26 12:43 | 40.54459 | 18.69663 | 36102 ft | 419 kts | 320° |
| 2026-04-26 12:43 | 40.59073 | 18.64967 | 36098 ft | 420 kts | 320° |
| 2026-04-26 12:44 | 40.63688 | 18.60257 | 36100 ft | 420 kts | 320° |
| 2026-04-26 12:44 | 40.68270 | 18.55567 | 36103 ft | 419 kts | 320° |
| 2026-04-26 12:45 | 40.72877 | 18.50843 | 36098 ft | 419 kts | 320° |
| 2026-04-26 12:45 | 40.77478 | 18.46118 | 36096 ft | 419 kts | 320° |
| 2026-04-26 12:46 | 40.82077 | 18.41393 | 36100 ft | 419 kts | 320° |
| 2026-04-26 12:46 | 40.86676 | 18.36663 | 36105 ft | 419 kts | 319° |
| 2026-04-26 12:47 | 40.91265 | 18.31915 | 36110 ft | 418 kts | 319° |
| 2026-04-26 12:47 | 40.95853 | 18.27167 | 36107 ft | 418 kts | 319° |
| 2026-04-26 12:48 | 41.00405 | 18.22461 | 36108 ft | 418 kts | 319° |
| 2026-04-26 12:48 | 41.04983 | 18.17717 | 36109 ft | 417 kts | 319° |
| 2026-04-26 12:49 | 41.09560 | 18.12961 | 36111 ft | 417 kts | 319° |
| 2026-04-26 12:49 | 41.14129 | 18.08201 | 36111 ft | 417 kts | 319° |
| 2026-04-26 12:50 | 41.18689 | 18.03439 | 36115 ft | 417 kts | 319° |
| 2026-04-26 12:50 | 41.23250 | 17.98663 | 36117 ft | 417 kts | 319° |
| 2026-04-26 12:51 | 41.27785 | 17.93921 | 36111 ft | 417 kts | 319° |
| 2026-04-26 12:51 | 41.32338 | 17.89146 | 36102 ft | 417 kts | 319° |
| 2026-04-26 12:52 | 41.36890 | 17.84354 | 36098 ft | 417 kts | 319° |
| 2026-04-26 12:52 | 41.40666 | 17.80371 | 36096 ft | 416 kts | 319° |
| 2026-04-26 12:53 | 41.45213 | 17.75568 | 36099 ft | 416 kts | 319° |
| 2026-04-26 12:53 | 41.49758 | 17.70772 | 36099 ft | 416 kts | 319° |
| 2026-04-26 12:54 | 41.54291 | 17.65978 | 36102 ft | 415 kts | 319° |
| 2026-04-26 12:54 | 41.58804 | 17.61200 | 36102 ft | 415 kts | 319° |
| 2026-04-26 12:55 | 41.63332 | 17.56397 | 36105 ft | 416 kts | 319° |
| 2026-04-26 12:55 | 41.67857 | 17.51582 | 36106 ft | 416 kts | 319° |
| 2026-04-26 12:56 | 41.72381 | 17.46754 | 36106 ft | 416 kts | 319° |
| 2026-04-26 12:56 | 41.76897 | 17.41925 | 36105 ft | 415 kts | 319° |
| 2026-04-26 12:57 | 41.81418 | 17.37092 | 36105 ft | 415 kts | 319° |
| 2026-04-26 12:57 | 41.85903 | 17.32284 | 36100 ft | 415 kts | 319° |
| 2026-04-26 12:58 | 41.92671 | 17.24997 | 36092 ft | 415 kts | 319° |
| 2026-04-26 12:58 | 41.97368 | 17.20442 | 36091 ft | 417 kts | 324° |
| 2026-04-26 12:59 | 42.02250 | 17.16202 | 36088 ft | 418 kts | 325° |
| 2026-04-26 12:59 | 42.07124 | 17.11949 | 36095 ft | 417 kts | 324° |
| 2026-04-26 13:00 | 42.11952 | 17.07586 | 36099 ft | 417 kts | 323° |
| 2026-04-26 13:00 | 42.16748 | 17.03185 | 36102 ft | 417 kts | 323° |
| 2026-04-26 13:01 | 42.21512 | 16.98823 | 36101 ft | 417 kts | 324° |
| 2026-04-26 13:01 | 42.26311 | 16.94440 | 36099 ft | 417 kts | 324° |
| 2026-04-26 13:02 | 42.31116 | 16.90051 | 36093 ft | 417 kts | 324° |
| 2026-04-26 13:02 | 42.35926 | 16.85653 | 36087 ft | 417 kts | 324° |
| 2026-04-26 13:03 | 42.40723 | 16.81251 | 36083 ft | 417 kts | 323° |
| 2026-04-26 13:03 | 42.45518 | 16.76836 | 36080 ft | 417 kts | 324° |
| 2026-04-26 13:04 | 42.50320 | 16.72415 | 36079 ft | 417 kts | 324° |
| 2026-04-26 13:04 | 42.55088 | 16.68008 | 36076 ft | 417 kts | 323° |
| 2026-04-26 13:05 | 42.59881 | 16.63573 | 36077 ft | 418 kts | 324° |
| 2026-04-26 13:05 | 42.64686 | 16.59125 | 36079 ft | 417 kts | 323° |
| 2026-04-26 13:06 | 42.69479 | 16.54679 | 36080 ft | 417 kts | 323° |
| 2026-04-26 13:06 | 42.74266 | 16.50221 | 36079 ft | 417 kts | 323° |
| 2026-04-26 13:07 | 42.79056 | 16.45754 | 36079 ft | 417 kts | 323° |
| 2026-04-26 13:07 | 42.83841 | 16.41286 | 36075 ft | 417 kts | 323° |
| 2026-04-26 13:08 | 42.88625 | 16.36811 | 36074 ft | 417 kts | 323° |
| 2026-04-26 13:08 | 42.93403 | 16.32328 | 36075 ft | 417 kts | 323° |
| 2026-04-26 13:09 | 42.98150 | 16.27871 | 36078 ft | 417 kts | 323° |
| 2026-04-26 13:09 | 43.02926 | 16.23378 | 36080 ft | 416 kts | 323° |
| 2026-04-26 13:10 | 43.07696 | 16.18876 | 36083 ft | 417 kts | 323° |
| 2026-04-26 13:10 | 43.12466 | 16.14373 | 36084 ft | 416 kts | 323° |
| 2026-04-26 13:11 | 43.17235 | 16.09863 | 36083 ft | 416 kts | 324° |
| 2026-04-26 13:11 | 43.21999 | 16.05344 | 36082 ft | 416 kts | 323° |
| 2026-04-26 13:12 | 43.26760 | 16.00810 | 36084 ft | 417 kts | 323° |
| 2026-04-26 13:12 | 43.31523 | 15.96273 | 36083 ft | 417 kts | 324° |
| 2026-04-26 13:13 | 43.36257 | 15.91763 | 36079 ft | 417 kts | 324° |
| 2026-04-26 13:13 | 43.41046 | 15.87182 | 36076 ft | 417 kts | 324° |
| 2026-04-26 13:14 | 43.45773 | 15.82656 | 36076 ft | 416 kts | 324° |
| 2026-04-26 13:14 | 43.50526 | 15.78100 | 36078 ft | 417 kts | 323° |
| 2026-04-26 13:15 | 43.54848 | 15.72827 | 36081 ft | 415 kts | 315° |
| 2026-04-26 13:15 | 43.58980 | 15.67257 | 36084 ft | 415 kts | 315° |
| 2026-04-26 13:16 | 43.63113 | 15.61690 | 36089 ft | 415 kts | 315° |
| 2026-04-26 13:16 | 43.67244 | 15.56115 | 36091 ft | 415 kts | 315° |
| 2026-04-26 13:17 | 43.73424 | 15.47730 | 36093 ft | 415 kts | 314° |
| 2026-04-26 13:18 | 43.79579 | 15.39358 | 36098 ft | 415 kts | 315° |
| 2026-04-26 13:19 | 43.85750 | 15.30946 | 36099 ft | 415 kts | 315° |
| 2026-04-26 13:19 | 43.89877 | 15.25317 | 36103 ft | 415 kts | 314° |
| 2026-04-26 13:20 | 43.93986 | 15.19687 | 36104 ft | 415 kts | 314° |
| 2026-04-26 13:20 | 43.98089 | 15.14044 | 36105 ft | 415 kts | 314° |
| 2026-04-26 13:21 | 44.02190 | 15.08400 | 36108 ft | 415 kts | 314° |
| 2026-04-26 13:21 | 44.06286 | 15.02753 | 36112 ft | 414 kts | 314° |
| 2026-04-26 13:22 | 44.10373 | 14.97107 | 36111 ft | 414 kts | 314° |
| 2026-04-26 13:22 | 44.14431 | 14.91488 | 36111 ft | 414 kts | 314° |
| 2026-04-26 13:23 | 44.18514 | 14.85822 | 36109 ft | 414 kts | 314° |
| 2026-04-26 13:23 | 44.22595 | 14.80147 | 36110 ft | 414 kts | 314° |
| 2026-04-26 13:24 | 44.26671 | 14.74471 | 36107 ft | 414 kts | 314° |
| 2026-04-26 13:24 | 44.30739 | 14.68791 | 36106 ft | 413 kts | 314° |
| 2026-04-26 13:25 | 44.34802 | 14.63106 | 36106 ft | 413 kts | 314° |
| 2026-04-26 13:25 | 44.38855 | 14.57422 | 36106 ft | 413 kts | 314° |
| 2026-04-26 13:26 | 44.42879 | 14.51776 | 36105 ft | 412 kts | 314° |
| 2026-04-26 13:26 | 44.46924 | 14.46091 | 36101 ft | 412 kts | 314° |
| 2026-04-26 13:27 | 44.50965 | 14.40389 | 36099 ft | 412 kts | 314° |
| 2026-04-26 13:27 | 44.55004 | 14.34685 | 36098 ft | 412 kts | 314° |
| 2026-04-26 13:28 | 44.59034 | 14.28969 | 36099 ft | 412 kts | 314° |
| 2026-04-26 13:28 | 44.63065 | 14.23246 | 36098 ft | 413 kts | 314° |
| 2026-04-26 13:29 | 44.67098 | 14.17510 | 36099 ft | 412 kts | 314° |
| 2026-04-26 13:29 | 44.71104 | 14.11808 | 36098 ft | 412 kts | 314° |
| 2026-04-26 13:30 | 44.74471 | 14.07000 | 36097 ft | 412 kts | 314° |
| 2026-04-26 13:30 | 44.79138 | 14.00311 | 36096 ft | 412 kts | 314° |
| 2026-04-26 13:31 | 44.83153 | 13.94547 | 36097 ft | 412 kts | 314° |
| 2026-04-26 13:31 | 44.87172 | 13.88776 | 36099 ft | 412 kts | 314° |
| 2026-04-26 13:32 | 44.91185 | 13.82992 | 36101 ft | 412 kts | 314° |
| 2026-04-26 13:32 | 44.95196 | 13.77205 | 36103 ft | 412 kts | 314° |
| 2026-04-26 13:33 | 44.99203 | 13.71411 | 36102 ft | 412 kts | 313° |
| 2026-04-26 13:33 | 45.03217 | 13.65605 | 36103 ft | 412 kts | 313° |
| 2026-04-26 13:34 | 45.07202 | 13.59823 | 36101 ft | 412 kts | 313° |
| 2026-04-26 13:34 | 45.11196 | 13.54008 | 36097 ft | 412 kts | 313° |
| 2026-04-26 13:35 | 45.15192 | 13.48169 | 36098 ft | 412 kts | 313° |
| 2026-04-26 13:35 | 45.19175 | 13.42341 | 36094 ft | 411 kts | 313° |
| 2026-04-26 13:36 | 45.23157 | 13.36503 | 36093 ft | 411 kts | 313° |
| 2026-04-26 13:36 | 45.27140 | 13.30652 | 36093 ft | 412 kts | 313° |
| 2026-04-26 13:37 | 45.31105 | 13.24858 | 36092 ft | 412 kts | 316° |
| 2026-04-26 13:37 | 45.35476 | 13.19563 | 36094 ft | 413 kts | 319° |
| 2026-04-26 13:38 | 45.39863 | 13.14295 | 36094 ft | 413 kts | 319° |
| 2026-04-26 13:38 | 45.44250 | 13.09012 | 36098 ft | 412 kts | 318° |
| 2026-04-26 13:39 | 45.48629 | 13.03726 | 36095 ft | 413 kts | 318° |
| 2026-04-26 13:39 | 45.53006 | 12.98434 | 36092 ft | 412 kts | 318° |
| 2026-04-26 13:40 | 45.57376 | 12.93122 | 36091 ft | 412 kts | 318° |
| 2026-04-26 13:40 | 45.61746 | 12.87815 | 36087 ft | 413 kts | 318° |
| 2026-04-26 13:41 | 45.66124 | 12.82496 | 36081 ft | 413 kts | 318° |
| 2026-04-26 13:41 | 45.69759 | 12.78066 | 36082 ft | 413 kts | 318° |
| 2026-04-26 13:42 | 45.74844 | 12.71848 | 36085 ft | 414 kts | 318° |
| 2026-04-26 13:42 | 45.78479 | 12.67390 | 36082 ft | 414 kts | 317° |
| 2026-04-26 13:43 | 45.82853 | 12.62026 | 36092 ft | 414 kts | 317° |
| 2026-04-26 13:43 | 45.87230 | 12.56628 | 36095 ft | 414 kts | 317° |
| 2026-04-26 13:44 | 45.91599 | 12.51234 | 36101 ft | 414 kts | 317° |
| 2026-04-26 13:44 | 45.95974 | 12.45817 | 36106 ft | 414 kts | 317° |
| 2026-04-26 13:45 | 46.00320 | 12.40441 | 36104 ft | 414 kts | 317° |
| 2026-04-26 13:45 | 46.04684 | 12.35036 | 36110 ft | 414 kts | 317° |
| 2026-04-26 13:46 | 46.09052 | 12.29615 | 36123 ft | 414 kts | 317° |
| 2026-04-26 13:46 | 46.13412 | 12.24186 | 36146 ft | 414 kts | 317° |
| 2026-04-26 13:47 | 46.17754 | 12.18774 | 36159 ft | 414 kts | 317° |
| 2026-04-26 13:47 | 46.22115 | 12.13325 | 36168 ft | 414 kts | 317° |
| 2026-04-26 13:48 | 46.26472 | 12.07861 | 36177 ft | 414 kts | 317° |
| 2026-04-26 13:48 | 46.30802 | 12.02410 | 36190 ft | 414 kts | 317° |
| 2026-04-26 13:49 | 46.35145 | 11.96922 | 36203 ft | 414 kts | 317° |
| 2026-04-26 13:49 | 46.39491 | 11.91432 | 36206 ft | 414 kts | 317° |
| 2026-04-26 13:50 | 46.43849 | 11.85934 | 36211 ft | 415 kts | 317° |
| 2026-04-26 13:50 | 46.48192 | 11.80417 | 36214 ft | 415 kts | 316° |
| 2026-04-26 13:51 | 46.52533 | 11.74897 | 36217 ft | 414 kts | 317° |
| 2026-04-26 13:51 | 46.56867 | 11.69392 | 36209 ft | 414 kts | 316° |
| 2026-04-26 13:52 | 46.61195 | 11.63874 | 36170 ft | 413 kts | 316° |
| 2026-04-26 13:52 | 46.65480 | 11.58376 | 36161 ft | 413 kts | 316° |
| 2026-04-26 13:53 | 46.69789 | 11.52847 | 36152 ft | 413 kts | 316° |
| 2026-04-26 13:53 | 46.74106 | 11.47312 | 36144 ft | 413 kts | 316° |
| 2026-04-26 13:54 | 46.78412 | 11.41766 | 36132 ft | 413 kts | 316° |
| 2026-04-26 13:54 | 46.82709 | 11.36219 | 36130 ft | 413 kts | 316° |
| 2026-04-26 13:55 | 46.88431 | 11.28808 | 36132 ft | 413 kts | 316° |
| 2026-04-26 13:56 | 46.95766 | 11.19792 | 36133 ft | 415 kts | 326° |
| 2026-04-26 13:56 | 47.00668 | 11.15314 | 36136 ft | 415 kts | 325° |
| 2026-04-26 13:57 | 47.05574 | 11.10796 | 35771 ft | 418 kts | 325° |
| 2026-04-26 13:57 | 47.08026 | 11.08528 | 35324 ft | 415 kts | 325° |
| 2026-04-26 13:57 | 47.10302 | 11.06063 | 34880 ft | 410 kts | 319° |
| 2026-04-26 13:57 | 47.12504 | 11.03425 | 34428 ft | 407 kts | 319° |
| 2026-04-26 13:58 | 47.14684 | 11.00814 | 33981 ft | 404 kts | 319° |
| 2026-04-26 13:58 | 47.16858 | 10.98216 | 33531 ft | 401 kts | 319° |
| 2026-04-26 13:58 | 47.19015 | 10.95637 | 33073 ft | 398 kts | 319° |
| 2026-04-26 13:58 | 47.21153 | 10.93074 | 32621 ft | 395 kts | 319° |
| 2026-04-26 13:59 | 47.23274 | 10.90529 | 32171 ft | 392 kts | 319° |
| 2026-04-26 13:59 | 47.25387 | 10.87997 | 31723 ft | 390 kts | 319° |
| 2026-04-26 13:59 | 47.27482 | 10.85482 | 31266 ft | 387 kts | 319° |
| 2026-04-26 14:00 | 47.33675 | 10.78020 | 29918 ft | 379 kts | 318° |
| 2026-04-26 14:00 | 47.35709 | 10.75562 | 29464 ft | 377 kts | 318° |
| 2026-04-26 14:00 | 47.37054 | 10.73936 | 29166 ft | 376 kts | 319° |
| 2026-04-26 14:01 | 47.39773 | 10.70704 | 28566 ft | 374 kts | 320° |
| 2026-04-26 14:01 | 47.41871 | 10.68442 | 28115 ft | 374 kts | 322° |
| 2026-04-26 14:01 | 47.44014 | 10.66275 | 27671 ft | 373 kts | 324° |
| 2026-04-26 14:01 | 47.46170 | 10.64151 | 27216 ft | 372 kts | 324° |
| 2026-04-26 14:02 | 47.48322 | 10.62032 | 26766 ft | 370 kts | 324° |
| 2026-04-26 14:02 | 47.50457 | 10.59907 | 26316 ft | 369 kts | 324° |
| 2026-04-26 14:02 | 47.52554 | 10.57795 | 25870 ft | 368 kts | 323° |
| 2026-04-26 14:02 | 47.54659 | 10.55656 | 25416 ft | 366 kts | 323° |
| 2026-04-26 14:03 | 47.56751 | 10.53510 | 24964 ft | 364 kts | 323° |
| 2026-04-26 14:03 | 47.58812 | 10.51372 | 24519 ft | 361 kts | 323° |
| 2026-04-26 14:03 | 47.60865 | 10.49237 | 24058 ft | 358 kts | 323° |
| 2026-04-26 14:03 | 47.62900 | 10.47119 | 23611 ft | 356 kts | 323° |
| 2026-04-26 14:04 | 47.64919 | 10.45015 | 23160 ft | 354 kts | 323° |
| 2026-04-26 14:04 | 47.66925 | 10.42926 | 22710 ft | 352 kts | 323° |
| 2026-04-26 14:04 | 47.68921 | 10.40848 | 22260 ft | 350 kts | 323° |
| 2026-04-26 14:04 | 47.70909 | 10.38756 | 21805 ft | 348 kts | 321° |
| 2026-04-26 14:05 | 47.72604 | 10.36232 | 21356 ft | 345 kts | 306° |
| 2026-04-26 14:05 | 47.73789 | 10.33168 | 20902 ft | 341 kts | 291° |
| 2026-04-26 14:05 | 47.74400 | 10.29829 | 20458 ft | 339 kts | 277° |
| 2026-04-26 14:05 | 47.74472 | 10.26338 | 20005 ft | 338 kts | 269° |
| 2026-04-26 14:06 | 47.74424 | 10.22850 | 19557 ft | 337 kts | 269° |
| 2026-04-26 14:06 | 47.74377 | 10.19375 | 19104 ft | 336 kts | 269° |
| 2026-04-26 14:06 | 47.74330 | 10.15911 | 18654 ft | 335 kts | 269° |
| 2026-04-26 14:06 | 47.74282 | 10.12455 | 18205 ft | 334 kts | 269° |
| 2026-04-26 14:07 | 47.74232 | 10.09005 | 17751 ft | 334 kts | 269° |
| 2026-04-26 14:07 | 47.74181 | 10.05555 | 17305 ft | 334 kts | 269° |
| 2026-04-26 14:07 | 47.74119 | 10.02113 | 16862 ft | 333 kts | 269° |
| 2026-04-26 14:07 | 47.74053 | 9.98675 | 16411 ft | 333 kts | 269° |
| 2026-04-26 14:08 | 47.73987 | 9.95241 | 15958 ft | 332 kts | 269° |
| 2026-04-26 14:08 | 47.73925 | 9.91808 | 15506 ft | 332 kts | 269° |
| 2026-04-26 14:08 | 47.73866 | 9.88385 | 15063 ft | 331 kts | 269° |
| 2026-04-26 14:08 | 47.73808 | 9.84968 | 14602 ft | 330 kts | 269° |
| 2026-04-26 14:09 | 47.73749 | 9.81559 | 14152 ft | 330 kts | 269° |
| 2026-04-26 14:09 | 47.73688 | 9.78160 | 13711 ft | 329 kts | 269° |
| 2026-04-26 14:09 | 47.73624 | 9.74774 | 13273 ft | 327 kts | 269° |
| 2026-04-26 14:09 | 47.73559 | 9.71413 | 12821 ft | 326 kts | 269° |
| 2026-04-26 14:10 | 47.73495 | 9.68055 | 12367 ft | 324 kts | 269° |
| 2026-04-26 14:10 | 47.73438 | 9.64781 | 12086 ft | 317 kts | 269° |
| 2026-04-26 14:10 | 47.73378 | 9.61542 | 11849 ft | 311 kts | 269° |
| 2026-04-26 14:10 | 47.73315 | 9.58358 | 11588 ft | 305 kts | 269° |
| 2026-04-26 14:11 | 47.73195 | 9.52188 | 11090 ft | 293 kts | 269° |
| 2026-04-26 14:11 | 47.73132 | 9.49188 | 10808 ft | 289 kts | 268° |
| 2026-04-26 14:11 | 47.73067 | 9.46213 | 10507 ft | 286 kts | 268° |
| 2026-04-26 14:12 | 47.73004 | 9.43281 | 10212 ft | 282 kts | 268° |
| 2026-04-26 14:12 | 47.72897 | 9.40400 | 9940 ft | 278 kts | 262° |
| 2026-04-26 14:12 | 47.72380 | 9.37673 | 9682 ft | 273 kts | 246° |
| 2026-04-26 14:12 | 47.71476 | 9.35213 | 9404 ft | 269 kts | 240° |
| 2026-04-26 14:13 | 47.69633 | 9.30490 | 8871 ft | 259 kts | 240° |
| 2026-04-26 14:13 | 47.68735 | 9.28191 | 8585 ft | 256 kts | 240° |
| 2026-04-26 14:13 | 47.67844 | 9.25920 | 8268 ft | 254 kts | 240° |
| 2026-04-26 14:14 | 47.66958 | 9.23658 | 7937 ft | 251 kts | 240° |
| 2026-04-26 14:14 | 47.66103 | 9.21474 | 7622 ft | 245 kts | 240° |
| 2026-04-26 14:14 | 47.65119 | 9.19492 | 7320 ft | 235 kts | 220° |
| 2026-04-26 14:14 | 47.63713 | 9.18359 | 7002 ft | 230 kts | 194° |
| 2026-04-26 14:15 | 47.62137 | 9.18281 | 6679 ft | 226 kts | 167° |
| 2026-04-26 14:15 | 47.60715 | 9.19195 | 6368 ft | 222 kts | 148° |
| 2026-04-26 14:15 | 47.59389 | 9.20345 | 6064 ft | 219 kts | 149° |
| 2026-04-26 14:15 | 47.58117 | 9.21534 | 5782 ft | 215 kts | 139° |
| 2026-04-26 14:16 | 47.57313 | 9.23362 | 5378 ft | 214 kts | 105° |
| 2026-04-26 14:16 | 47.57276 | 9.25497 | 5140 ft | 206 kts | 76° |
| 2026-04-26 14:16 | 47.57865 | 9.27405 | 4887 ft | 204 kts | 59° |
| 2026-04-26 14:16 | 47.58576 | 9.29205 | 4612 ft | 201 kts | 59° |
| 2026-04-26 14:17 | 47.59272 | 9.30975 | 4338 ft | 198 kts | 59° |
| 2026-04-26 14:17 | 47.59961 | 9.32733 | 4068 ft | 196 kts | 59° |
| 2026-04-26 14:17 | 47.60640 | 9.34471 | 3793 ft | 193 kts | 59° |
| 2026-04-26 14:17 | 47.61299 | 9.36158 | 3534 ft | 190 kts | 59° |
| 2026-04-26 14:18 | 47.61955 | 9.37844 | 3274 ft | 188 kts | 59° |
| 2026-04-26 14:18 | 47.62602 | 9.39504 | 3025 ft | 185 kts | 59° |
| 2026-04-26 14:18 | 47.63243 | 9.41146 | 2770 ft | 180 kts | 59° |
| 2026-04-26 14:18 | 47.63845 | 9.42696 | 2531 ft | 164 kts | 58° |
| 2026-04-26 14:19 | 47.64384 | 9.44081 | 2314 ft | 147 kts | 58° |
| 2026-04-26 14:19 | 47.64879 | 9.45357 | 2119 ft | 139 kts | 58° |
| 2026-04-26 14:19 | 47.65355 | 9.46587 | 1917 ft | 136 kts | 57° |
| 2026-04-26 14:19 | 47.65821 | 9.47801 | 1746 ft | 135 kts | 54° |
| 2026-04-26 14:20 | 47.66295 | 9.49001 | 1550 ft | 135 kts | 56° |
| 2026-04-26 14:20 | 47.66766 | 9.50203 | 1373 ft | 134 kts | 56° |
| 2026-04-26 14:20 | 47.67177 | 9.51260 | 1361 ft | 96 kts | 60° |
| 2026-04-26 14:20 | 47.67426 | 9.51905 | 1360 ft | 54 kts | 60° |
| 2026-04-26 14:21 | 47.67521 | 9.52220 | 1368 ft | 16 kts | 117° |
| 2026-04-26 14:21 | 47.67465 | 9.52332 | 1368 ft | 13 kts | 142° |
| 2026-04-26 14:21 | 47.67407 | 9.52394 | 1369 ft | 6 kts | 162° |
| 2026-04-26 14:21 | 47.67374 | 9.52386 | 1368 ft | 4 kts | 195° |
| 2026-04-26 14:22 | 47.67362 | 9.52382 | 1368 ft | 0 kts | 195° |